Estació meteorològica de Bellmunt (Osona, Osona)

Consulta les dades en temps real de l'estació meteorològica de Bellmunt





Hora UTC 04:50
Temperatura 7.4 ºC
Humitat 78.0 %
Pressió 1009.0 hPa
Pluja 0.0 mm
Velocitat vent 22.5 km/h
Direcció vent WSW

Dades diàries 2026-05-05



Hora UTC (hivern +1h; estiu +2h)
Temperatura (ºC) Humitat (%) Pressió (hPa) Velocitat vent (km/h) Precipitació (mm)
Hora UTC Aire Humitat Pressió Vel. Dir. Vel. Max Dir. Intent. màx 5 min.
00:05 7.2 89.0 1010.0 24.1 WSW 24.1 0.0
00:10 7.0 89.0 1010.0 24.1 SW 30.6 0.0
00:15 6.8 89.0 1010.0 29.0 WSW 29.0 0.0
00:20 6.7 89.0 1009.8 25.7 WSW 33.8 0.0
00:25 6.8 89.0 1009.8 29.0 SW 33.8 0.0
00:30 6.8 89.0 1009.7 32.2 WSW 33.8 0.0
00:35 6.8 89.0 1009.5 27.4 SW 33.8 0.0
00:40 6.9 88.0 1009.7 29.0 SW 33.8 0.0
00:45 7.3 85.0 1009.6 25.7 WSW 32.2 0.0
00:50 7.6 82.0 1009.6 24.1 WSW 30.6 0.0
00:55 7.5 83.0 1009.6 19.3 WSW 29.0 0.0
01:00 7.4 83.0 1009.6 17.7 SW 25.7 0.0
01:05 7.1 85.0 1009.6 17.7 SW 25.7 0.0
01:10 6.9 86.0 1009.5 16.1 WSW 19.3 0.0
01:15 6.9 86.0 1009.4 19.3 WSW 19.3 0.0
01:20 6.8 86.0 1009.5 17.7 SW 20.9 0.0
01:25 6.6 87.0 1009.5 16.1 WSW 20.9 0.0
01:30 6.7 86.0 1009.4 14.5 WSW 19.3 0.0
01:35 6.7 86.0 1009.5 19.3 WSW 19.3 0.0
01:40 6.6 87.0 1009.6 11.3 SW 19.3 0.0
01:45 6.6 87.0 1009.5 14.5 W 16.1 0.0
01:50 6.7 87.0 1009.6 9.7 SW 16.1 0.0
01:55 6.5 87.0 1009.6 8.0 WSW 11.3 0.0
02:00 6.6 87.0 1009.5 8.0 WSW 12.9 0.0
02:05 6.3 88.0 1009.6 4.8 WSW 12.9 0.0
02:10 6.2 89.0 1009.6 4.8 WSW 11.3 0.0
02:15 6.1 89.0 1009.6 4.8 W 8.0 0.0
02:20 6.1 89.0 1009.7 6.4 SW 11.3 0.0
02:25 6.1 89.0 1009.7 4.8 SSW 12.9 0.0
02:30 5.9 89.0 1009.6 3.2 SW 12.9 0.0
02:35 5.9 90.0 1009.6 6.4 WSW 12.9 0.0
02:40 6.2 89.0 1009.5 9.7 W 12.9 0.0
02:45 6.6 86.0 1009.4 12.9 W 20.9 0.0
02:50 6.7 86.0 1009.4 20.9 W 22.5 0.0
02:55 6.7 85.0 1009.4 11.3 W 22.5 0.0
03:00 6.6 85.0 1009.3 20.9 W 24.1 0.0
03:05 7.1 83.0 1009.2 20.9 W 30.6 0.0
03:10 7.3 81.0 1009.3 24.1 W 30.6 0.0
03:15 7.5 80.0 1009.2 25.7 W 29.0 0.0
03:20 7.4 81.0 1009.2 20.9 WNW 27.4 0.0
03:25 7.6 80.0 1009.2 22.5 W 25.7 0.0
03:30 7.6 79.0 1009.3 17.7 WSW 27.4 0.0
03:35 7.8 78.0 1009.2 22.5 W 27.4 0.0
03:40 7.9 77.0 1009.2 20.9 W 25.7 0.0
03:45 7.7 78.0 1009.2 17.7 W 25.7 0.0
03:50 7.5 79.0 1009.1 20.9 W 22.5 0.0
03:55 7.7 76.0 1009.1 14.5 W 25.7 0.0
04:00 7.7 78.0 1009.1 12.9 W 25.7 0.0
04:05 7.5 79.0 1009.1 14.5 WNW 20.9 0.0
04:10 7.2 81.0 1009.0 12.9 WNW 22.5 0.0
04:15 7.0 81.0 1009.0 20.9 W 24.1 0.0
04:20 6.9 82.0 1009.0 16.1 WNW 24.1 0.0
04:25 6.9 82.0 1009.0 17.7 W 22.5 0.0
04:30 6.9 82.0 1009.0 17.7 W 22.5 0.0
04:35 7.1 81.0 1009.0 17.7 W 25.7 0.0
04:40 7.3 78.0 1009.0 19.3 W 27.4 0.0
04:45 7.6 77.0 1009.0 22.5 W 27.4 0.0
04:50 7.4 78.0 1009.0 22.5 WSW 27.4 0.0
Màxima 7.9 90.0 1010.0 32.2 WSW 33.8 0.0
Mínima 5.9 76.0 1009.0
Total 0.0